sensor_id;sensor_type;location;lat;lon;timestamp;temperature;humidity
1766;DHT22;880;52.452;8.656;2024-03-02T00:00:39;8.40;99.90
1766;DHT22;880;52.452;8.656;2024-03-02T00:03:07;8.40;99.90
1766;DHT22;880;52.452;8.656;2024-03-02T00:05:36;8.30;99.90
1766;DHT22;880;52.452;8.656;2024-03-02T00:08:04;8.30;99.90
1766;DHT22;880;52.452;8.656;2024-03-02T00:10:39;8.30;99.90
1766;DHT22;880;52.452;8.656;2024-03-02T00:13:07;8.30;99.90
1766;DHT22;880;52.452;8.656;2024-03-02T00:18:30;8.30;99.90
1766;DHT22;880;52.452;8.656;2024-03-02T00:21:00;8.40;99.90
1766;DHT22;880;52.452;8.656;2024-03-02T00:23:29;8.40;99.90
1766;DHT22;880;52.452;8.656;2024-03-02T00:26:00;8.30;99.90
1766;DHT22;880;52.452;8.656;2024-03-02T00:28:31;8.30;99.90
1766;DHT22;880;52.452;8.656;2024-03-02T00:31:04;8.20;99.90
1766;DHT22;880;52.452;8.656;2024-03-02T00:33:48;8.20;99.90
1766;DHT22;880;52.452;8.656;2024-03-02T00:36:21;8.20;99.90
1766;DHT22;880;52.452;8.656;2024-03-02T00:38:50;8.20;99.90
1766;DHT22;880;52.452;8.656;2024-03-02T00:41:27;8.10;99.90
1766;DHT22;880;52.452;8.656;2024-03-02T00:44:04;8.10;99.90
1766;DHT22;880;52.452;8.656;2024-03-02T00:46:37;8.10;99.90
1766;DHT22;880;52.452;8.656;2024-03-02T00:49:11;8.00;99.90
1766;DHT22;880;52.452;8.656;2024-03-02T00:51:40;8.10;99.90
1766;DHT22;880;52.452;8.656;2024-03-02T00:54:09;8.00;99.90
1766;DHT22;880;52.452;8.656;2024-03-02T00:56:36;8.00;99.90
1766;DHT22;880;52.452;8.656;2024-03-02T00:59:03;8.00;99.90
1766;DHT22;880;52.452;8.656;2024-03-02T01:01:30;8.00;99.90
1766;DHT22;880;52.452;8.656;2024-03-02T01:03:57;8.00;99.90
1766;DHT22;880;52.452;8.656;2024-03-02T01:06:24;8.00;99.90
1766;DHT22;880;52.452;8.656;2024-03-02T01:08:51;8.00;99.90
1766;DHT22;880;52.452;8.656;2024-03-02T01:11:20;7.90;99.90
1766;DHT22;880;52.452;8.656;2024-03-02T01:13:50;7.90;99.90
1766;DHT22;880;52.452;8.656;2024-03-02T01:16:18;7.90;99.90
1766;DHT22;880;52.452;8.656;2024-03-02T01:18:45;7.80;99.90
1766;DHT22;880;52.452;8.656;2024-03-02T01:21:13;7.80;99.90
1766;DHT22;880;52.452;8.656;2024-03-02T01:23:40;7.80;99.90
1766;DHT22;880;52.452;8.656;2024-03-02T01:26:07;7.80;99.90
1766;DHT22;880;52.452;8.656;2024-03-02T01:28:34;7.70;99.90
1766;DHT22;880;52.452;8.656;2024-03-02T01:31:01;7.70;99.90
1766;DHT22;880;52.452;8.656;2024-03-02T01:33:28;7.70;99.90
1766;DHT22;880;52.452;8.656;2024-03-02T01:35:55;7.70;99.90
1766;DHT22;880;52.452;8.656;2024-03-02T01:38:22;7.70;99.90
1766;DHT22;880;52.452;8.656;2024-03-02T01:40:49;7.60;99.90
1766;DHT22;880;52.452;8.656;2024-03-02T01:43:16;7.60;99.90
1766;DHT22;880;52.452;8.656;2024-03-02T01:45:43;7.60;99.90
1766;DHT22;880;52.452;8.656;2024-03-02T01:48:10;7.60;99.90
1766;DHT22;880;52.452;8.656;2024-03-02T01:50:37;7.60;99.90
1766;DHT22;880;52.452;8.656;2024-03-02T01:53:04;7.50;99.90
1766;DHT22;880;52.452;8.656;2024-03-02T01:55:31;7.50;99.90
1766;DHT22;880;52.452;8.656;2024-03-02T01:57:59;7.50;99.90
1766;DHT22;880;52.452;8.656;2024-03-02T02:00:27;7.50;99.90
1766;DHT22;880;52.452;8.656;2024-03-02T02:02:54;7.50;99.90
1766;DHT22;880;52.452;8.656;2024-03-02T02:05:22;7.50;99.90
1766;DHT22;880;52.452;8.656;2024-03-02T02:07:49;7.50;99.90
1766;DHT22;880;52.452;8.656;2024-03-02T02:10:16;7.50;99.90
1766;DHT22;880;52.452;8.656;2024-03-02T02:12:43;7.50;99.90
1766;DHT22;880;52.452;8.656;2024-03-02T02:15:23;7.40;99.90
1766;DHT22;880;52.452;8.656;2024-03-02T02:17:55;7.40;99.90
1766;DHT22;880;52.452;8.656;2024-03-02T02:20:23;7.30;99.90
1766;DHT22;880;52.452;8.656;2024-03-02T02:23:00;7.30;99.90
1766;DHT22;880;52.452;8.656;2024-03-02T02:25:28;7.30;99.90
1766;DHT22;880;52.452;8.656;2024-03-02T02:27:57;7.30;99.90
1766;DHT22;880;52.452;8.656;2024-03-02T02:30:27;7.30;99.90
1766;DHT22;880;52.452;8.656;2024-03-02T02:32:55;7.20;99.90
1766;DHT22;880;52.452;8.656;2024-03-02T02:35:23;7.20;99.90
1766;DHT22;880;52.452;8.656;2024-03-02T02:37:54;7.20;99.90
1766;DHT22;880;52.452;8.656;2024-03-02T02:40:22;7.20;99.90
1766;DHT22;880;52.452;8.656;2024-03-02T02:42:50;7.20;99.90
1766;DHT22;880;52.452;8.656;2024-03-02T02:45:19;7.20;99.90
1766;DHT22;880;52.452;8.656;2024-03-02T02:47:46;7.20;99.90
1766;DHT22;880;52.452;8.656;2024-03-02T02:50:14;7.30;99.90
1766;DHT22;880;52.452;8.656;2024-03-02T02:52:42;7.20;99.90
1766;DHT22;880;52.452;8.656;2024-03-02T02:55:11;7.30;99.90
1766;DHT22;880;52.452;8.656;2024-03-02T02:57:40;7.30;99.90
1766;DHT22;880;52.452;8.656;2024-03-02T03:00:11;7.30;99.90
1766;DHT22;880;52.452;8.656;2024-03-02T03:02:48;7.30;99.90
1766;DHT22;880;52.452;8.656;2024-03-02T03:05:17;7.30;99.90
1766;DHT22;880;52.452;8.656;2024-03-02T03:07:45;7.30;99.90
1766;DHT22;880;52.452;8.656;2024-03-02T03:10:13;7.30;99.90
1766;DHT22;880;52.452;8.656;2024-03-02T03:12:42;7.30;99.90
1766;DHT22;880;52.452;8.656;2024-03-02T03:15:10;7.30;99.90
1766;DHT22;880;52.452;8.656;2024-03-02T03:17:41;7.30;99.90
1766;DHT22;880;52.452;8.656;2024-03-02T03:20:08;7.30;99.90
1766;DHT22;880;52.452;8.656;2024-03-02T03:22:39;7.30;99.90
1766;DHT22;880;52.452;8.656;2024-03-02T03:25:06;7.30;99.90
1766;DHT22;880;52.452;8.656;2024-03-02T03:27:35;7.30;99.90
1766;DHT22;880;52.452;8.656;2024-03-02T03:30:03;7.30;99.90
1766;DHT22;880;52.452;8.656;2024-03-02T03:32:30;7.30;99.90
1766;DHT22;880;52.452;8.656;2024-03-02T03:34:57;7.20;99.90
1766;DHT22;880;52.452;8.656;2024-03-02T03:37:24;7.30;99.90
1766;DHT22;880;52.452;8.656;2024-03-02T03:39:53;7.30;99.90
1766;DHT22;880;52.452;8.656;2024-03-02T03:42:20;7.20;99.90
1766;DHT22;880;52.452;8.656;2024-03-02T03:44:47;7.30;99.90
1766;DHT22;880;52.452;8.656;2024-03-02T03:47:14;7.30;99.90
1766;DHT22;880;52.452;8.656;2024-03-02T03:49:41;7.30;99.90
1766;DHT22;880;52.452;8.656;2024-03-02T03:52:08;7.30;99.90
1766;DHT22;880;52.452;8.656;2024-03-02T03:54:35;7.30;99.90
1766;DHT22;880;52.452;8.656;2024-03-02T03:57:05;7.30;99.90
1766;DHT22;880;52.452;8.656;2024-03-02T03:59:32;7.30;99.90
1766;DHT22;880;52.452;8.656;2024-03-02T04:01:59;7.30;99.90
1766;DHT22;880;52.452;8.656;2024-03-02T04:04:26;7.20;99.90
1766;DHT22;880;52.452;8.656;2024-03-02T04:06:54;7.20;99.90
1766;DHT22;880;52.452;8.656;2024-03-02T04:09:21;7.10;99.90
1766;DHT22;880;52.452;8.656;2024-03-02T04:11:48;7.10;99.90
1766;DHT22;880;52.452;8.656;2024-03-02T04:14:15;7.10;99.90
1766;DHT22;880;52.452;8.656;2024-03-02T04:16:42;7.10;99.90
1766;DHT22;880;52.452;8.656;2024-03-02T04:19:09;7.00;99.90
1766;DHT22;880;52.452;8.656;2024-03-02T04:21:36;7.00;99.90
1766;DHT22;880;52.452;8.656;2024-03-02T04:24:04;7.00;99.90
1766;DHT22;880;52.452;8.656;2024-03-02T04:26:31;7.00;99.90
1766;DHT22;880;52.452;8.656;2024-03-02T04:28:58;7.10;99.90
1766;DHT22;880;52.452;8.656;2024-03-02T04:31:25;7.00;99.90
1766;DHT22;880;52.452;8.656;2024-03-02T04:33:52;7.00;99.90
1766;DHT22;880;52.452;8.656;2024-03-02T04:36:19;7.00;99.90
1766;DHT22;880;52.452;8.656;2024-03-02T04:38:46;7.00;99.90
1766;DHT22;880;52.452;8.656;2024-03-02T04:41:13;7.00;99.90
1766;DHT22;880;52.452;8.656;2024-03-02T04:43:40;7.00;99.90
1766;DHT22;880;52.452;8.656;2024-03-02T04:46:07;7.00;99.90
1766;DHT22;880;52.452;8.656;2024-03-02T04:48:34;7.00;99.90
1766;DHT22;880;52.452;8.656;2024-03-02T04:51:01;7.00;99.90
1766;DHT22;880;52.452;8.656;2024-03-02T04:53:28;7.00;99.90
1766;DHT22;880;52.452;8.656;2024-03-02T04:55:55;7.00;99.90
1766;DHT22;880;52.452;8.656;2024-03-02T04:58:41;7.00;99.90
1766;DHT22;880;52.452;8.656;2024-03-02T05:01:08;7.00;99.90
1766;DHT22;880;52.452;8.656;2024-03-02T05:03:35;6.90;99.90
1766;DHT22;880;52.452;8.656;2024-03-02T05:06:02;6.90;99.90
1766;DHT22;880;52.452;8.656;2024-03-02T05:08:29;6.90;99.90
1766;DHT22;880;52.452;8.656;2024-03-02T05:10:56;6.90;99.90
1766;DHT22;880;52.452;8.656;2024-03-02T05:13:43;6.90;99.90
1766;DHT22;880;52.452;8.656;2024-03-02T05:16:10;6.80;99.90
1766;DHT22;880;52.452;8.656;2024-03-02T05:18:38;6.90;99.90
1766;DHT22;880;52.452;8.656;2024-03-02T05:21:05;6.90;99.90
1766;DHT22;880;52.452;8.656;2024-03-02T05:23:32;6.90;99.90
1766;DHT22;880;52.452;8.656;2024-03-02T05:25:59;6.90;99.90
1766;DHT22;880;52.452;8.656;2024-03-02T05:28:26;6.90;99.90
1766;DHT22;880;52.452;8.656;2024-03-02T05:30:53;6.90;99.90
1766;DHT22;880;52.452;8.656;2024-03-02T05:33:21;6.90;99.90
1766;DHT22;880;52.452;8.656;2024-03-02T05:35:49;6.80;99.90
1766;DHT22;880;52.452;8.656;2024-03-02T05:38:16;6.90;99.90
1766;DHT22;880;52.452;8.656;2024-03-02T05:40:43;6.80;99.90
1766;DHT22;880;52.452;8.656;2024-03-02T05:43:10;6.80;99.90
1766;DHT22;880;52.452;8.656;2024-03-02T05:45:38;6.80;99.90
1766;DHT22;880;52.452;8.656;2024-03-02T05:48:07;6.80;99.90
1766;DHT22;880;52.452;8.656;2024-03-02T05:50:35;6.80;99.90
1766;DHT22;880;52.452;8.656;2024-03-02T05:53:02;6.80;99.90
1766;DHT22;880;52.452;8.656;2024-03-02T05:55:29;6.80;99.90
1766;DHT22;880;52.452;8.656;2024-03-02T05:57:56;6.80;99.90
1766;DHT22;880;52.452;8.656;2024-03-02T06:00:43;6.80;99.90
1766;DHT22;880;52.452;8.656;2024-03-02T06:03:10;6.80;99.90
1766;DHT22;880;52.452;8.656;2024-03-02T06:05:37;6.80;99.90
1766;DHT22;880;52.452;8.656;2024-03-02T06:08:04;6.80;99.90
1766;DHT22;880;52.452;8.656;2024-03-02T06:10:32;6.80;99.90
1766;DHT22;880;52.452;8.656;2024-03-02T06:12:59;6.80;99.90
1766;DHT22;880;52.452;8.656;2024-03-02T06:15:26;6.90;99.90
1766;DHT22;880;52.452;8.656;2024-03-02T06:17:53;6.90;99.90
1766;DHT22;880;52.452;8.656;2024-03-02T06:20:20;6.80;99.90
1766;DHT22;880;52.452;8.656;2024-03-02T06:22:48;6.80;99.90
1766;DHT22;880;52.452;8.656;2024-03-02T06:25:15;6.90;99.90
1766;DHT22;880;52.452;8.656;2024-03-02T06:27:42;6.90;99.90
1766;DHT22;880;52.452;8.656;2024-03-02T06:30:09;6.80;99.90
1766;DHT22;880;52.452;8.656;2024-03-02T06:32:36;6.90;99.90
1766;DHT22;880;52.452;8.656;2024-03-02T06:35:04;6.90;99.90
1766;DHT22;880;52.452;8.656;2024-03-02T06:37:34;6.80;99.90
1766;DHT22;880;52.452;8.656;2024-03-02T06:40:01;6.80;99.90
1766;DHT22;880;52.452;8.656;2024-03-02T06:42:28;6.90;99.90
1766;DHT22;880;52.452;8.656;2024-03-02T06:45:01;6.90;99.90
1766;DHT22;880;52.452;8.656;2024-03-02T06:47:29;6.90;99.90
1766;DHT22;880;52.452;8.656;2024-03-02T06:49:56;6.90;99.90
1766;DHT22;880;52.452;8.656;2024-03-02T06:52:25;7.00;99.90
1766;DHT22;880;52.452;8.656;2024-03-02T06:54:52;7.00;99.90
1766;DHT22;880;52.452;8.656;2024-03-02T06:57:19;7.00;99.90
1766;DHT22;880;52.452;8.656;2024-03-02T06:59:47;7.00;99.90
1766;DHT22;880;52.452;8.656;2024-03-02T07:02:17;7.10;99.90
1766;DHT22;880;52.452;8.656;2024-03-02T07:04:44;7.10;99.90
1766;DHT22;880;52.452;8.656;2024-03-02T07:07:12;7.20;99.90
1766;DHT22;880;52.452;8.656;2024-03-02T07:09:39;7.20;99.90
1766;DHT22;880;52.452;8.656;2024-03-02T07:12:06;7.20;99.90
1766;DHT22;880;52.452;8.656;2024-03-02T07:14:34;7.20;99.90
1766;DHT22;880;52.452;8.656;2024-03-02T07:17:20;7.20;99.90
1766;DHT22;880;52.452;8.656;2024-03-02T07:19:47;7.20;99.90
1766;DHT22;880;52.452;8.656;2024-03-02T07:22:14;7.30;99.90
1766;DHT22;880;52.452;8.656;2024-03-02T07:24:41;7.30;99.90
1766;DHT22;880;52.452;8.656;2024-03-02T07:27:09;7.30;99.90
1766;DHT22;880;52.452;8.656;2024-03-02T07:29:37;7.40;99.90
1766;DHT22;880;52.452;8.656;2024-03-02T07:32:04;7.40;99.90
1766;DHT22;880;52.452;8.656;2024-03-02T07:34:32;7.40;99.90
1766;DHT22;880;52.452;8.656;2024-03-02T07:36:59;7.50;99.90
1766;DHT22;880;52.452;8.656;2024-03-02T07:39:26;7.50;99.90
1766;DHT22;880;52.452;8.656;2024-03-02T07:41:54;7.50;99.90
1766;DHT22;880;52.452;8.656;2024-03-02T07:44:21;7.50;99.90
1766;DHT22;880;52.452;8.656;2024-03-02T07:46:48;7.50;99.90
1766;DHT22;880;52.452;8.656;2024-03-02T07:49:18;7.60;99.90
1766;DHT22;880;52.452;8.656;2024-03-02T07:51:45;7.60;99.90
1766;DHT22;880;52.452;8.656;2024-03-02T07:54:13;7.60;99.90
1766;DHT22;880;52.452;8.656;2024-03-02T07:56:40;7.70;99.90
1766;DHT22;880;52.452;8.656;2024-03-02T07:59:07;7.70;99.90
1766;DHT22;880;52.452;8.656;2024-03-02T08:01:34;7.70;99.90
1766;DHT22;880;52.452;8.656;2024-03-02T08:04:02;7.80;99.90
1766;DHT22;880;52.452;8.656;2024-03-02T08:06:32;7.80;99.90
1766;DHT22;880;52.452;8.656;2024-03-02T08:09:00;7.90;99.90
1766;DHT22;880;52.452;8.656;2024-03-02T08:11:27;8.00;99.90
1766;DHT22;880;52.452;8.656;2024-03-02T08:13:55;8.10;99.90
1766;DHT22;880;52.452;8.656;2024-03-02T08:16:23;8.20;99.90
1766;DHT22;880;52.452;8.656;2024-03-02T08:18:50;8.40;99.90
1766;DHT22;880;52.452;8.656;2024-03-02T08:21:18;8.60;99.90
1766;DHT22;880;52.452;8.656;2024-03-02T08:23:45;8.80;99.90
1766;DHT22;880;52.452;8.656;2024-03-02T08:26:12;8.90;99.90
1766;DHT22;880;52.452;8.656;2024-03-02T08:28:39;9.00;99.90
1766;DHT22;880;52.452;8.656;2024-03-02T08:31:09;9.20;99.90
1766;DHT22;880;52.452;8.656;2024-03-02T08:33:36;9.30;99.90
1766;DHT22;880;52.452;8.656;2024-03-02T08:36:05;9.40;99.90
1766;DHT22;880;52.452;8.656;2024-03-02T08:38:32;9.50;99.90
1766;DHT22;880;52.452;8.656;2024-03-02T08:40:59;9.60;99.90
1766;DHT22;880;52.452;8.656;2024-03-02T08:43:26;9.70;99.90
1766;DHT22;880;52.452;8.656;2024-03-02T08:45:53;9.90;99.90
1766;DHT22;880;52.452;8.656;2024-03-02T08:48:21;10.10;99.90
1766;DHT22;880;52.452;8.656;2024-03-02T08:50:48;10.20;99.90
1766;DHT22;880;52.452;8.656;2024-03-02T08:53:15;10.30;99.90
1766;DHT22;880;52.452;8.656;2024-03-02T08:55:48;10.50;99.90
1766;DHT22;880;52.452;8.656;2024-03-02T08:58:15;10.60;99.90
1766;DHT22;880;52.452;8.656;2024-03-02T09:00:42;10.80;99.90
1766;DHT22;880;52.452;8.656;2024-03-02T09:03:10;11.00;99.90
1766;DHT22;880;52.452;8.656;2024-03-02T09:05:37;11.10;99.90
1766;DHT22;880;52.452;8.656;2024-03-02T09:08:04;11.20;99.90
1766;DHT22;880;52.452;8.656;2024-03-02T09:10:32;11.30;99.90
1766;DHT22;880;52.452;8.656;2024-03-02T09:12:59;11.50;99.90
1766;DHT22;880;52.452;8.656;2024-03-02T09:15:26;11.60;99.90
1766;DHT22;880;52.452;8.656;2024-03-02T09:17:54;11.60;99.90
1766;DHT22;880;52.452;8.656;2024-03-02T09:20:21;11.70;99.90
1766;DHT22;880;52.452;8.656;2024-03-02T09:22:48;11.80;99.90
1766;DHT22;880;52.452;8.656;2024-03-02T09:25:15;12.00;99.90
1766;DHT22;880;52.452;8.656;2024-03-02T09:27:43;12.10;99.90
1766;DHT22;880;52.452;8.656;2024-03-02T09:30:11;12.30;99.90
1766;DHT22;880;52.452;8.656;2024-03-02T09:32:38;12.60;99.90
1766;DHT22;880;52.452;8.656;2024-03-02T09:35:05;12.70;99.90
1766;DHT22;880;52.452;8.656;2024-03-02T09:37:33;12.70;99.90
1766;DHT22;880;52.452;8.656;2024-03-02T09:40:00;12.80;99.90
1766;DHT22;880;52.452;8.656;2024-03-02T09:42:27;12.90;99.90
1766;DHT22;880;52.452;8.656;2024-03-02T09:44:55;12.90;99.90
1766;DHT22;880;52.452;8.656;2024-03-02T09:47:22;13.00;99.90
1766;DHT22;880;52.452;8.656;2024-03-02T09:49:49;13.20;99.90
1766;DHT22;880;52.452;8.656;2024-03-02T09:52:16;13.20;99.90
1766;DHT22;880;52.452;8.656;2024-03-02T09:54:43;13.40;99.90
1766;DHT22;880;52.452;8.656;2024-03-02T09:57:10;13.50;99.90
1766;DHT22;880;52.452;8.656;2024-03-02T09:59:37;13.50;99.90
1766;DHT22;880;52.452;8.656;2024-03-02T10:02:04;13.60;99.90
1766;DHT22;880;52.452;8.656;2024-03-02T10:04:34;13.70;99.90
1766;DHT22;880;52.452;8.656;2024-03-02T10:07:19;13.70;99.90
1766;DHT22;880;52.452;8.656;2024-03-02T10:09:48;13.90;99.90
1766;DHT22;880;52.452;8.656;2024-03-02T10:12:16;13.80;99.90
1766;DHT22;880;52.452;8.656;2024-03-02T10:14:44;13.90;99.90
1766;DHT22;880;52.452;8.656;2024-03-02T10:17:12;14.10;99.90
1766;DHT22;880;52.452;8.656;2024-03-02T10:19:40;14.30;99.90
1766;DHT22;880;52.452;8.656;2024-03-02T10:22:08;14.30;99.90
1766;DHT22;880;52.452;8.656;2024-03-02T10:24:39;14.50;99.90
1766;DHT22;880;52.452;8.656;2024-03-02T10:27:18;14.70;99.90
1766;DHT22;880;52.452;8.656;2024-03-02T10:29:49;14.90;99.90
1766;DHT22;880;52.452;8.656;2024-03-02T10:32:16;14.90;99.90
1766;DHT22;880;52.452;8.656;2024-03-02T10:34:47;14.90;99.90
1766;DHT22;880;52.452;8.656;2024-03-02T10:37:15;14.90;99.90
1766;DHT22;880;52.452;8.656;2024-03-02T10:39:46;15.00;99.90
1766;DHT22;880;52.452;8.656;2024-03-02T10:42:14;15.10;99.90
1766;DHT22;880;52.452;8.656;2024-03-02T10:44:42;15.20;99.90
1766;DHT22;880;52.452;8.656;2024-03-02T10:47:12;15.40;99.90
1766;DHT22;880;52.452;8.656;2024-03-02T10:49:42;15.60;99.90
1766;DHT22;880;52.452;8.656;2024-03-02T10:52:10;15.70;99.90
1766;DHT22;880;52.452;8.656;2024-03-02T10:54:37;15.80;99.90
1766;DHT22;880;52.452;8.656;2024-03-02T10:57:07;15.70;99.90
1766;DHT22;880;52.452;8.656;2024-03-02T10:59:37;15.70;99.90
1766;DHT22;880;52.452;8.656;2024-03-02T11:02:21;15.80;99.90
1766;DHT22;880;52.452;8.656;2024-03-02T11:04:49;15.90;99.90
1766;DHT22;880;52.452;8.656;2024-03-02T11:07:21;16.10;99.90
1766;DHT22;880;52.452;8.656;2024-03-02T11:10:01;16.20;99.90
1766;DHT22;880;52.452;8.656;2024-03-02T11:13:00;16.50;99.90
1766;DHT22;880;52.452;8.656;2024-03-02T11:15:29;16.70;99.90
1766;DHT22;880;52.452;8.656;2024-03-02T11:17:57;16.90;99.90
1766;DHT22;880;52.452;8.656;2024-03-02T11:20:25;16.90;99.90
1766;DHT22;880;52.452;8.656;2024-03-02T11:22:52;16.60;99.90
1766;DHT22;880;52.452;8.656;2024-03-02T11:25:27;16.50;99.90
1766;DHT22;880;52.452;8.656;2024-03-02T11:33:09;17.00;99.90
1766;DHT22;880;52.452;8.656;2024-03-02T11:35:42;17.20;99.90
1766;DHT22;880;52.452;8.656;2024-03-02T11:38:12;17.20;99.90
1766;DHT22;880;52.452;8.656;2024-03-02T11:40:40;17.30;99.90
1766;DHT22;880;52.452;8.656;2024-03-02T11:43:07;17.20;99.90
1766;DHT22;880;52.452;8.656;2024-03-02T11:45:36;17.20;99.90
1766;DHT22;880;52.452;8.656;2024-03-02T11:48:11;17.20;99.90
1766;DHT22;880;52.452;8.656;2024-03-02T11:50:49;17.10;99.90
1766;DHT22;880;52.452;8.656;2024-03-02T11:53:17;17.20;99.90
1766;DHT22;880;52.452;8.656;2024-03-02T11:55:45;17.40;99.90
1766;DHT22;880;52.452;8.656;2024-03-02T11:58:15;17.50;99.90
1766;DHT22;880;52.452;8.656;2024-03-02T12:00:47;17.80;99.90
1766;DHT22;880;52.452;8.656;2024-03-02T12:03:14;17.90;99.90
1766;DHT22;880;52.452;8.656;2024-03-02T12:05:42;18.00;99.90
1766;DHT22;880;52.452;8.656;2024-03-02T12:08:11;18.00;99.90
1766;DHT22;880;52.452;8.656;2024-03-02T12:10:39;18.00;99.90
1766;DHT22;880;52.452;8.656;2024-03-02T12:13:07;18.10;99.90
1766;DHT22;880;52.452;8.656;2024-03-02T12:15:35;18.30;99.90
1766;DHT22;880;52.452;8.656;2024-03-02T12:18:05;18.40;99.90
1766;DHT22;880;52.452;8.656;2024-03-02T12:20:33;18.50;99.90
1766;DHT22;880;52.452;8.656;2024-03-02T12:23:04;18.60;99.90
1766;DHT22;880;52.452;8.656;2024-03-02T12:25:32;18.60;99.90
1766;DHT22;880;52.452;8.656;2024-03-02T12:28:03;18.50;99.90
1766;DHT22;880;52.452;8.656;2024-03-02T12:30:32;18.60;99.90
1766;DHT22;880;52.452;8.656;2024-03-02T12:33:02;18.30;99.90
1766;DHT22;880;52.452;8.656;2024-03-02T12:35:29;18.00;99.90
1766;DHT22;880;52.452;8.656;2024-03-02T12:37:57;18.00;99.90
1766;DHT22;880;52.452;8.656;2024-03-02T12:40:25;17.90;99.90
1766;DHT22;880;52.452;8.656;2024-03-02T12:42:52;17.90;99.90
1766;DHT22;880;52.452;8.656;2024-03-02T12:45:19;18.10;99.90
1766;DHT22;880;52.452;8.656;2024-03-02T12:47:52;18.30;99.90
1766;DHT22;880;52.452;8.656;2024-03-02T12:50:20;18.40;99.90
1766;DHT22;880;52.452;8.656;2024-03-02T12:52:53;18.60;99.90
1766;DHT22;880;52.452;8.656;2024-03-02T12:55:21;18.70;99.90
1766;DHT22;880;52.452;8.656;2024-03-02T12:57:50;18.60;99.90
1766;DHT22;880;52.452;8.656;2024-03-02T13:00:20;18.30;99.90
1766;DHT22;880;52.452;8.656;2024-03-02T13:02:47;18.20;99.90
1766;DHT22;880;52.452;8.656;2024-03-02T13:05:15;18.20;99.90
1766;DHT22;880;52.452;8.656;2024-03-02T13:07:42;18.20;99.90
1766;DHT22;880;52.452;8.656;2024-03-02T13:10:12;18.10;99.90
1766;DHT22;880;52.452;8.656;2024-03-02T13:12:39;18.30;99.90
1766;DHT22;880;52.452;8.656;2024-03-02T13:15:06;18.30;99.90
1766;DHT22;880;52.452;8.656;2024-03-02T13:17:35;18.20;99.90
1766;DHT22;880;52.452;8.656;2024-03-02T13:20:04;18.30;99.90
1766;DHT22;880;52.452;8.656;2024-03-02T13:22:37;18.30;99.90
1766;DHT22;880;52.452;8.656;2024-03-02T13:25:05;18.40;99.90
1766;DHT22;880;52.452;8.656;2024-03-02T13:27:33;18.40;99.90
1766;DHT22;880;52.452;8.656;2024-03-02T13:30:02;18.50;99.90
1766;DHT22;880;52.452;8.656;2024-03-02T13:32:29;18.50;99.90
1766;DHT22;880;52.452;8.656;2024-03-02T13:34:57;18.50;99.90
1766;DHT22;880;52.452;8.656;2024-03-02T13:37:24;18.60;99.90
1766;DHT22;880;52.452;8.656;2024-03-02T13:39:51;18.80;99.90
1766;DHT22;880;52.452;8.656;2024-03-02T13:42:18;18.90;99.90
1766;DHT22;880;52.452;8.656;2024-03-02T13:44:45;18.80;99.90
1766;DHT22;880;52.452;8.656;2024-03-02T13:47:14;18.80;99.90
1766;DHT22;880;52.452;8.656;2024-03-02T13:49:41;18.70;99.90
1766;DHT22;880;52.452;8.656;2024-03-02T13:52:13;18.70;99.90
1766;DHT22;880;52.452;8.656;2024-03-02T13:54:42;18.60;99.90
1766;DHT22;880;52.452;8.656;2024-03-02T13:57:11;18.50;99.90
1766;DHT22;880;52.452;8.656;2024-03-02T13:59:40;18.50;99.90
1766;DHT22;880;52.452;8.656;2024-03-02T14:02:08;18.40;99.90
1766;DHT22;880;52.452;8.656;2024-03-02T14:04:36;18.40;99.90
1766;DHT22;880;52.452;8.656;2024-03-02T14:07:05;18.40;99.90
1766;DHT22;880;52.452;8.656;2024-03-02T14:09:36;18.30;99.90
1766;DHT22;880;52.452;8.656;2024-03-02T14:12:04;18.40;99.90
1766;DHT22;880;52.452;8.656;2024-03-02T14:14:32;18.30;99.90
1766;DHT22;880;52.452;8.656;2024-03-02T14:17:00;18.50;99.90
1766;DHT22;880;52.452;8.656;2024-03-02T14:19:30;18.80;99.90
1766;DHT22;880;52.452;8.656;2024-03-02T14:21:58;19.00;99.90
1766;DHT22;880;52.452;8.656;2024-03-02T14:24:25;18.80;99.90
1766;DHT22;880;52.452;8.656;2024-03-02T14:26:53;18.70;99.90
1766;DHT22;880;52.452;8.656;2024-03-02T14:29:31;18.60;99.90
1766;DHT22;880;52.452;8.656;2024-03-02T14:32:03;18.70;99.90
1766;DHT22;880;52.452;8.656;2024-03-02T14:34:30;18.90;99.90
1766;DHT22;880;52.452;8.656;2024-03-02T14:36:58;19.10;99.90
1766;DHT22;880;52.452;8.656;2024-03-02T14:39:28;19.10;99.90
1766;DHT22;880;52.452;8.656;2024-03-02T14:41:56;19.10;99.90
1766;DHT22;880;52.452;8.656;2024-03-02T14:44:23;19.10;99.90
1766;DHT22;880;52.452;8.656;2024-03-02T14:46:50;19.10;99.90
1766;DHT22;880;52.452;8.656;2024-03-02T14:49:17;18.90;99.90
1766;DHT22;880;52.452;8.656;2024-03-02T14:51:44;18.80;99.90
1766;DHT22;880;52.452;8.656;2024-03-02T14:54:11;18.70;99.90
1766;DHT22;880;52.452;8.656;2024-03-02T14:56:38;18.70;99.90
1766;DHT22;880;52.452;8.656;2024-03-02T14:59:05;18.70;99.90
1766;DHT22;880;52.452;8.656;2024-03-02T15:01:32;18.90;99.90
1766;DHT22;880;52.452;8.656;2024-03-02T15:04:00;18.70;99.90
1766;DHT22;880;52.452;8.656;2024-03-02T15:06:27;18.70;99.90
1766;DHT22;880;52.452;8.656;2024-03-02T15:08:54;18.50;99.90
1766;DHT22;880;52.452;8.656;2024-03-02T15:11:21;18.50;99.90
1766;DHT22;880;52.452;8.656;2024-03-02T15:13:51;18.50;99.90
1766;DHT22;880;52.452;8.656;2024-03-02T15:16:18;18.30;99.90
1766;DHT22;880;52.452;8.656;2024-03-02T15:18:45;18.10;99.90
1766;DHT22;880;52.452;8.656;2024-03-02T15:21:12;18.00;99.90
1766;DHT22;880;52.452;8.656;2024-03-02T15:23:39;17.90;99.90
1766;DHT22;880;52.452;8.656;2024-03-02T15:26:06;17.80;99.90
1766;DHT22;880;52.452;8.656;2024-03-02T15:28:35;17.70;99.90
1766;DHT22;880;52.452;8.656;2024-03-02T15:31:03;17.50;99.90
1766;DHT22;880;52.452;8.656;2024-03-02T15:33:30;17.50;99.90
1766;DHT22;880;52.452;8.656;2024-03-02T15:35:59;17.50;99.90
1766;DHT22;880;52.452;8.656;2024-03-02T15:38:27;17.50;99.90
1766;DHT22;880;52.452;8.656;2024-03-02T15:41:01;17.60;99.90
1766;DHT22;880;52.452;8.656;2024-03-02T15:43:28;17.80;99.90
1766;DHT22;880;52.452;8.656;2024-03-02T15:45:57;17.60;99.90
1766;DHT22;880;52.452;8.656;2024-03-02T15:48:24;17.30;99.90
1766;DHT22;880;52.452;8.656;2024-03-02T15:50:52;17.10;99.90
1766;DHT22;880;52.452;8.656;2024-03-02T15:53:19;17.00;99.90
1766;DHT22;880;52.452;8.656;2024-03-02T15:55:46;17.00;99.90
1766;DHT22;880;52.452;8.656;2024-03-02T15:58:13;17.00;99.90
1766;DHT22;880;52.452;8.656;2024-03-02T16:00:40;16.80;99.90
1766;DHT22;880;52.452;8.656;2024-03-02T16:03:07;16.70;99.90
1766;DHT22;880;52.452;8.656;2024-03-02T16:05:34;16.60;99.90
1766;DHT22;880;52.452;8.656;2024-03-02T16:08:01;16.60;99.90
1766;DHT22;880;52.452;8.656;2024-03-02T16:10:28;16.50;99.90
1766;DHT22;880;52.452;8.656;2024-03-02T16:12:55;16.20;99.90
1766;DHT22;880;52.452;8.656;2024-03-02T16:15:27;16.20;99.90
1766;DHT22;880;52.452;8.656;2024-03-02T16:17:55;16.10;99.90
1766;DHT22;880;52.452;8.656;2024-03-02T16:20:22;16.10;99.90
1766;DHT22;880;52.452;8.656;2024-03-02T16:22:50;16.20;99.90
1766;DHT22;880;52.452;8.656;2024-03-02T16:25:17;16.10;99.90
1766;DHT22;880;52.452;8.656;2024-03-02T16:27:44;15.90;99.90
1766;DHT22;880;52.452;8.656;2024-03-02T16:30:11;15.80;99.90
1766;DHT22;880;52.452;8.656;2024-03-02T16:32:38;15.60;99.90
1766;DHT22;880;52.452;8.656;2024-03-02T16:35:05;15.60;99.90
1766;DHT22;880;52.452;8.656;2024-03-02T16:37:32;15.40;99.90
1766;DHT22;880;52.452;8.656;2024-03-02T16:39:59;15.30;99.90
1766;DHT22;880;52.452;8.656;2024-03-02T16:42:26;15.20;99.90